Elizabeth Ann — WCZ5348 — position and weather

sailwx.info

Track history (hours):
 
Tides and Currents Weather Stations Pressure Air Temp Water Temp Dewpoint Dewpoint Depression Visibility Wind Speed Wind Dir Waves Ship Positions

Elizabeth Ann

More information available from US FCC via Universal Licensing System and Coast Guard Vessel Documentation Center.

Last reported at 2014-Jul-26 08:13 UTC. Time now 2014-Jul-31 15:42 UTC.
Position N 40°29' W 074°06'.

Length 32 m; draft 5 m.

Type: Tug. MMSI: 366773150.

Date/timePositionNaut miles runAvg speedWind from/ knotsBaromVisibWave heightAir tempDewpointWater temp
2014-Jul-26 08:13N 40°29' W 074°06'14 7.4
2014-Jul-26 06:20N 40°22' W 073°50'19 4.5
2014-Jul-26 02:03N 40°30' W 074°13'  
2014-Jul-22 07:09N 40°29' W 074°06'8 8.5
2014-Jul-22 06:12N 40°27' W 073°56'5 8.1
2014-Jul-22 05:33N 40°23' W 073°51'6 4.5
2014-Jul-22 04:18N 40°27' W 073°56'14 4.4
2014-Jul-22 01:13N 40°29' W 074°14'5 6.6
2014-Jul-22 00:26N 40°30' W 074°07'6 6.4
2014-Jul-21 23:33N 40°29' W 073°60'3 0.4
2014-Jul-21 15:16N 40°27' W 073°56'  
2014-Jul-17 10:34N 40°29' W 074°04'6 5.9
2014-Jul-17 09:31N 40°27' W 073°56'  
Track history (hours):
 
Tides and Currents Weather Stations Pressure Air Temp Water Temp Dewpoint Dewpoint Depression Visibility Wind Speed Wind Dir Waves Ship Positions

Elizabeth Ann

More information available from US FCC via Universal Licensing System and Coast Guard Vessel Documentation Center.

Last reported at 2014-Jul-26 08:13 UTC. Time now 2014-Jul-31 15:42 UTC.
Position N 40°29' W 074°06'.

Length 32 m; draft 5 m.

Type: Tug. MMSI: 366773150.

Date/timePositionNaut miles runAvg speedWind from/ knotsBaromVisibWave heightAir tempDewpointWater temp
2014-Jul-26 08:13N 40°29' W 074°06'14 7.4
2014-Jul-26 06:20N 40°22' W 073°50'19 4.5
2014-Jul-26 02:03N 40°30' W 074°13'  
2014-Jul-22 07:09N 40°29' W 074°06'8 8.5
2014-Jul-22 06:12N 40°27' W 073°56'5 8.1
2014-Jul-22 05:33N 40°23' W 073°51'6 4.5
2014-Jul-22 04:18N 40°27' W 073°56'14 4.4
2014-Jul-22 01:13N 40°29' W 074°14'5 6.6
2014-Jul-22 00:26N 40°30' W 074°07'6 6.4
2014-Jul-21 23:33N 40°29' W 073°60'3 0.4
2014-Jul-21 15:16N 40°27' W 073°56'  
2014-Jul-17 10:34N 40°29' W 074°04'6 5.9
2014-Jul-17 09:31N 40°27' W 073°56'  

Dump ship's entire track history